createdAt,value
2022-12-06T00:09:34.734Z,0
2022-12-06T00:19:11.686Z,0.83
2022-12-06T00:28:48.763Z,0.83
2022-12-06T00:38:25.926Z,0
2022-12-06T00:48:02.583Z,0
2022-12-06T00:57:39.536Z,0.83
2022-12-06T01:07:16.262Z,0
2022-12-06T01:16:53.120Z,0
2022-12-06T01:26:30.887Z,0
2022-12-06T01:36:07.294Z,0.83
2022-12-06T01:45:44.024Z,0
2022-12-06T01:54:55.953Z,0
2022-12-06T02:04:32.127Z,0
2022-12-06T02:14:09.003Z,0
2022-12-06T02:23:46.861Z,0
2022-12-06T02:33:22.955Z,0
2022-12-06T02:42:59.371Z,0
2022-12-06T02:52:36.127Z,0
2022-12-06T03:02:13.071Z,0
2022-12-06T03:11:50.652Z,0
2022-12-06T03:21:26.814Z,0
2022-12-06T03:31:03.425Z,0
2022-12-06T03:40:40.270Z,0
2022-12-06T03:50:17.169Z,0
2022-12-06T03:59:55.353Z,0
2022-12-06T04:09:31.609Z,0
2022-12-06T04:19:08.633Z,0
2022-12-06T04:28:45.532Z,0
2022-12-06T04:38:22.300Z,0
2022-12-06T04:47:59.518Z,0
2022-12-06T04:57:36.629Z,0
2022-12-06T05:07:13.655Z,0
2022-12-06T05:16:50.306Z,0.83
2022-12-06T05:26:27.142Z,0
2022-12-06T05:36:04.310Z,0
2022-12-06T05:45:41.228Z,0
2022-12-06T05:55:18.111Z,0
2022-12-06T06:04:54.720Z,0
2022-12-06T06:14:31.778Z,0
2022-12-06T06:24:08.590Z,0
2022-12-06T06:33:45.274Z,0.83
2022-12-06T06:43:22.234Z,3.33
2022-12-06T06:52:59.082Z,9.17
2022-12-06T07:02:35.984Z,28.33
2022-12-06T07:12:12.721Z,59.17
2022-12-06T07:21:49.832Z,90.83
2022-12-06T07:31:27.924Z,102.5
2022-12-06T07:41:05.134Z,140
2022-12-06T07:50:42.078Z,190
2022-12-06T08:00:18.325Z,235.83
2022-12-06T08:09:55.217Z,231.67
2022-12-06T08:19:31.847Z,333.33
2022-12-06T08:29:11.312Z,512.5
2022-12-06T08:38:47.425Z,533.33
2022-12-06T08:48:24.342Z,544.17
2022-12-06T08:58:01.432Z,447.5
2022-12-06T09:07:38.401Z,477.5
2022-12-06T09:17:14.518Z,485.83
2022-12-06T09:26:51.342Z,435.83
2022-12-06T09:36:28.538Z,525.83
2022-12-06T09:46:05.860Z,524.17
2022-12-06T09:55:42.527Z,519.17
2022-12-06T10:05:19.429Z,710.83
2022-12-06T10:14:56.603Z,599.17
2022-12-06T10:24:34.747Z,635.83
2022-12-06T10:34:10.837Z,659.17
2022-12-06T10:43:47.993Z,682.5
2022-12-06T10:53:24.907Z,514.17
2022-12-06T11:03:01.699Z,638.33
2022-12-06T11:12:38.763Z,622.5
2022-12-06T11:22:15.624Z,608.33
2022-12-06T11:31:52.721Z,561.67
2022-12-06T11:41:29.356Z,644.17
2022-12-06T11:51:06.512Z,820.83
2022-12-06T12:00:43.639Z,810
2022-12-06T12:10:20.345Z,915.83
2022-12-06T12:19:57.313Z,666.67
2022-12-06T12:29:33.871Z,599.17
2022-12-06T12:39:10.578Z,670.83
2022-12-06T12:48:47.159Z,567.5
2022-12-06T12:58:23.923Z,405
2022-12-06T13:08:00.529Z,416.67
2022-12-06T13:17:37.418Z,388.33
2022-12-06T13:27:15.733Z,392.5
2022-12-06T13:36:52.385Z,324.17
2022-12-06T13:46:29.014Z,286.67
2022-12-06T13:56:05.769Z,280.83
2022-12-06T14:05:42.486Z,269.17
2022-12-06T14:15:19.241Z,183.33
2022-12-06T14:24:55.852Z,120.83
2022-12-06T14:34:32.469Z,83.33
2022-12-06T14:44:09.573Z,58.33
2022-12-06T14:53:46.275Z,31.67
2022-12-06T15:03:23.278Z,15.83
2022-12-06T15:12:59.403Z,7.5
2022-12-06T15:22:36.171Z,2.5
2022-12-06T15:32:13.159Z,0.83
2022-12-06T15:41:49.855Z,0.83
2022-12-06T15:51:26.540Z,0
2022-12-06T16:01:03.403Z,0
2022-12-06T16:11:10.045Z,0
2022-12-06T16:20:16.625Z,0
2022-12-06T16:29:53.606Z,0
2022-12-06T16:39:30.276Z,0
2022-12-06T16:49:37.153Z,0
2022-12-06T16:58:44.298Z,0
2022-12-06T17:08:22.215Z,0
2022-12-06T17:17:57.744Z,0
2022-12-06T17:27:35.018Z,0
2022-12-06T17:37:11.833Z,0
2022-12-06T17:46:48.812Z,0
2022-12-06T17:56:25.584Z,0
2022-12-06T18:15:39.704Z,0
2022-12-06T18:25:16.258Z,0
2022-12-06T18:34:52.552Z,0
2022-12-06T18:44:29.402Z,0
2022-12-06T18:54:06.399Z,0
2022-12-06T19:03:43.428Z,0
2022-12-06T19:13:20.506Z,0
2022-12-06T19:22:57.514Z,0
2022-12-06T19:32:34.291Z,0
2022-12-06T19:42:11.208Z,0
2022-12-06T19:51:47.846Z,0
2022-12-06T20:01:24.497Z,0
2022-12-06T20:11:00.877Z,0
2022-12-06T20:20:37.791Z,0
2022-12-06T20:30:14.704Z,0
2022-12-06T20:39:51.691Z,0
2022-12-06T20:49:28.473Z,0
2022-12-06T20:59:05.069Z,0
2022-12-06T21:08:41.842Z,0
2022-12-06T21:18:19.866Z,0
2022-12-06T21:27:55.538Z,0
2022-12-06T21:37:32.431Z,0
2022-12-06T21:47:09.530Z,0
2022-12-06T21:56:46.538Z,0
2022-12-06T22:06:23.502Z,0
2022-12-06T22:16:00.276Z,0
2022-12-06T22:25:37.243Z,0
2022-12-06T22:35:14.175Z,0
2022-12-06T22:44:50.910Z,0
2022-12-06T22:54:27.756Z,0
2022-12-06T23:04:04.657Z,0
2022-12-06T23:13:41.253Z,0
2022-12-06T23:23:16.968Z,0
2022-12-06T23:32:53.186Z,0
2022-12-06T23:42:29.207Z,0
2022-12-06T23:52:05.823Z,0
